Time;durP1;ratioP1;P1;durP2;ratioP2;P2;SDS_P1;SDS_P2;PMS_P1;PMS_P2;Temp;Humidity;BMP_temperature;BMP_pressure;BME280_temperature;BME280_humidity;BME280_pressure;Samples;Min_cycle;Max_cycle;Signal;HPM_P1;HPM_P2
2023/10/02 00:05:07;;;;;;;17.15;5.97;;;;;;;22.93;100.00;101702.31;4937005;29;20056;-41
2023/10/02 00:07:35;;;;;;;20.60;6.63;;;;;;;22.96;100.00;101704.19;4940806;28;20503;-43
2023/10/02 00:10:04;;;;;;;16.90;6.45;;;;;;;22.93;100.00;101713.66;4941952;29;20083;-41
2023/10/02 00:12:34;;;;;;;15.05;5.38;;;;;;;22.89;100.00;101708.16;4941329;29;20512;-40
2023/10/02 00:15:11;;;;;;;17.13;6.65;;;;;;;22.91;100.00;101708.47;4924970;29;20130;-42
2023/10/02 00:17:43;;;;;;;14.95;5.88;;;;;;;22.90;100.00;101714.59;4940235;29;20126;-42
2023/10/02 00:20:20;;;;;;;17.38;5.82;;;;;;;22.91;100.00;101713.38;4944255;28;20833;-41
2023/10/02 00:22:48;;;;;;;15.35;5.97;;;;;;;22.91;100.00;101707.69;4933653;28;20074;-44
2023/10/02 00:25:16;;;;;;;14.55;5.78;;;;;;;22.94;100.00;101713.16;4950617;29;20051;-46
2023/10/02 00:27:50;;;;;;;14.70;5.47;;;;;;;22.87;100.00;101716.34;4939083;29;20139;-41
2023/10/02 00:30:21;;;;;;;13.48;5.30;;;;;;;22.86;100.00;101708.31;4933018;29;20770;-40
2023/10/02 00:32:49;;;;;;;14.77;5.70;;;;;;;22.87;100.00;101709.88;4940735;29;20298;-40
2023/10/02 00:35:16;;;;;;;14.48;5.40;;;;;;;22.89;100.00;101710.22;4941659;28;20106;-45
2023/10/02 00:37:43;;;;;;;14.60;5.45;;;;;;;22.83;100.00;101703.63;4938061;28;20076;-41
2023/10/02 00:40:22;;;;;;;16.23;6.22;;;;;;;22.86;100.00;101699.81;4936301;29;20655;-42
2023/10/02 00:42:55;;;;;;;13.88;5.43;;;;;;;22.90;100.00;101700.44;4939376;29;20075;-41
2023/10/02 00:45:24;;;;;;;16.90;6.28;;;;;;;22.86;100.00;101697.00;4920649;29;20426;-41
2023/10/02 00:47:53;;;;;;;14.73;5.78;;;;;;;22.87;100.00;101692.88;4935194;29;20675;-44
2023/10/02 00:50:22;;;;;;;15.65;6.22;;;;;;;22.85;100.00;101687.69;4938905;28;20070;-42
2023/10/02 00:53:03;;;;;;;14.88;5.90;;;;;;;22.87;100.00;101690.03;4935794;29;20503;-43
2023/10/02 00:55:32;;;;;;;17.42;7.03;;;;;;;22.86;100.00;101694.16;4937814;28;20102;-44
2023/10/02 00:58:04;;;;;;;15.40;6.07;;;;;;;22.86;100.00;101692.09;4932773;29;20075;-42
2023/10/02 01:00:42;;;;;;;16.85;6.07;;;;;;;22.86;100.00;101697.78;4951530;29;20102;-44
2023/10/02 01:03:14;;;;;;;15.43;5.70;;;;;;;22.87;100.00;101698.53;4940162;28;20054;-44
2023/10/02 01:05:42;;;;;;;14.85;5.50;;;;;;;22.86;100.00;101691.31;4941600;29;20047;-41
2023/10/02 01:08:25;;;;;;;14.88;5.70;;;;;;;22.84;100.00;101702.34;4943611;28;20063;-40
2023/10/02 01:11:02;;;;;;;15.68;5.50;;;;;;;22.94;100.00;101693.31;4940708;28;20432;-41
2023/10/02 01:13:32;;;;;;;18.13;6.45;;;;;;;22.95;100.00;101691.28;4951669;29;20139;-41
2023/10/02 01:16:03;;;;;;;15.13;5.63;;;;;;;22.90;100.00;101686.25;4951913;29;20043;-41
2023/10/02 01:18:31;;;;;;;16.38;5.95;;;;;;;22.89;100.00;101691.16;4945417;28;20057;-42
2023/10/02 01:20:59;;;;;;;14.00;5.32;;;;;;;22.89;100.00;101685.50;4937577;28;20047;-42
2023/10/02 01:23:33;;;;;;;14.77;5.55;;;;;;;22.89;100.00;101684.69;4939462;29;20050;-42
2023/10/02 01:26:02;;;;;;;14.65;5.40;;;;;;;22.87;100.00;101682.34;4951262;29;20145;-45
2023/10/02 01:28:51;;;;;;;15.27;5.75;;;;;;;22.90;100.00;101683.41;4934319;29;20498;-41
2023/10/02 01:31:31;;;;;;;18.38;5.55;;;;;;;22.93;100.00;101685.28;4947958;28;20047;-41
2023/10/02 01:34:04;;;;;;;16.70;5.72;;;;;;;22.90;100.00;101687.03;4934466;29;20067;-39
2023/10/02 01:36:35;;;;;;;16.85;5.78;;;;;;;22.91;100.00;101682.16;4926153;29;20051;-43
2023/10/02 01:39:15;;;;;;;16.98;6.05;;;;;;;22.88;100.00;101680.28;4942728;29;20495;-41
2023/10/02 01:41:52;;;;;;;12.95;5.10;;;;;;;22.87;100.00;101679.50;4938038;29;20138;-45
2023/10/02 01:44:22;;;;;;;14.07;5.38;;;;;;;22.85;100.00;101679.19;4932130;29;20122;-45
2023/10/02 01:46:50;;;;;;;15.13;5.65;;;;;;;22.86;100.00;101679.97;4931883;29;20067;-45
2023/10/02 01:49:27;;;;;;;14.02;5.35;;;;;;;22.86;100.00;101680.78;4942483;28;20055;-41
2023/10/02 01:52:02;;;;;;;13.77;5.00;;;;;;;22.86;100.00;101679.97;4933219;29;20727;-42
2023/10/02 01:54:31;;;;;;;15.05;5.65;;;;;;;22.85;100.00;101682.00;4937918;29;20503;-43
2023/10/02 01:56:59;;;;;;;13.48;5.70;;;;;;;22.85;100.00;101672.75;4932122;29;20143;-40
2023/10/02 01:59:28;;;;;;;15.48;6.13;;;;;;;22.82;100.00;101673.69;4947777;29;20553;-44
2023/10/02 02:01:57;;;;;;;14.52;5.72;;;;;;;22.83;100.00;101676.06;4950803;29;20047;-42
2023/10/02 02:04:32;;;;;;;13.68;5.78;;;;;;;22.83;100.00;101669.59;4950311;29;20050;-41
2023/10/02 02:07:01;;;;;;;14.55;4.90;;;;;;;22.82;100.00;101665.19;4947599;28;20059;-42
2023/10/02 02:09:30;;;;;;;13.05;4.88;;;;;;;22.83;100.00;101675.25;4949706;29;20453;-43
2023/10/02 02:12:07;;;;;;;15.43;5.50;;;;;;;22.83;100.00;101667.56;4944891;29;20102;-42
2023/10/02 02:14:50;;;;;;;16.45;6.03;;;;;;;22.83;100.00;101663.91;4933648;29;20059;-41
2023/10/02 02:17:22;;;;;;;12.68;5.13;;;;;;;22.82;100.00;101668.03;4932641;29;20146;-41
2023/10/02 02:19:56;;;;;;;12.82;5.03;;;;;;;22.80;100.00;101664.88;4935681;28;20079;-41
2023/10/02 02:22:26;;;;;;;15.52;5.82;;;;;;;22.77;100.00;101674.34;4949936;29;20069;-41
2023/10/02 02:24:54;;;;;;;14.68;4.97;;;;;;;22.78;100.00;101664.59;4949074;29;20103;-40
2023/10/02 02:27:21;;;;;;;14.20;5.63;;;;;;;22.77;100.00;101660.16;4947426;29;20106;-45
2023/10/02 02:29:49;;;;;;;13.43;5.00;;;;;;;22.78;100.00;101661.75;4950429;29;20043;-40
2023/10/02 02:32:19;;;;;;;14.75;5.57;;;;;;;22.77;100.00;101663.00;4950238;29;20442;-45
2023/10/02 02:34:48;;;;;;;16.27;5.57;;;;;;;22.79;100.00;101666.94;4931972;29;20047;-42
2023/10/02 02:37:16;;;;;;;13.60;5.28;;;;;;;22.75;100.00;101662.72;4937349;28;20413;-42
2023/10/02 02:39:43;;;;;;;14.25;4.90;;;;;;;22.75;100.00;101668.38;4932254;29;20055;-42
2023/10/02 02:42:18;;;;;;;13.50;4.90;;;;;;;22.77;100.00;101674.34;4937756;29;20060;-41
2023/10/02 02:44:46;;;;;;;16.20;5.55;;;;;;;22.72;100.00;101664.47;4931324;29;20055;-43
2023/10/02 02:47:15;;;;;;;14.68;5.45;;;;;;;22.76;100.00;101667.09;4931587;29;20051;-40
2023/10/02 02:49:58;;;;;;;14.45;5.13;;;;;;;22.73;100.00;101673.72;4934742;28;20126;-44
2023/10/02 02:52:32;;;;;;;15.60;5.90;;;;;;;22.76;100.00;101664.28;4948016;29;20087;-43
2023/10/02 02:55:12;;;;;;;15.48;4.93;;;;;;;22.76;100.00;101669.94;4943996;29;20132;-42
2023/10/02 02:57:45;;;;;;;15.80;5.70;;;;;;;22.76;100.00;101659.41;4938577;29;20133;-42
2023/10/02 03:00:31;;;;;;;12.40;5.10;;;;;;;22.76;100.00;101661.44;4931228;29;20055;-42
2023/10/02 03:03:00;;;;;;;13.40;5.20;;;;;;;22.73;100.00;101656.72;4939585;29;20051;-43
2023/10/02 03:05:38;;;;;;;11.88;4.70;;;;;;;22.73;100.00;101653.88;4947006;28;20047;-41
2023/10/02 03:08:05;;;;;;;14.18;4.90;;;;;;;22.75;100.00;101659.88;4937719;29;20055;-41
2023/10/02 03:10:39;;;;;;;13.63;4.90;;;;;;;22.74;100.00;101666.81;4935379;29;20558;-45
2023/10/02 03:13:15;;;;;;;13.57;4.90;;;;;;;22.73;100.00;101654.69;4938469;29;20466;-42
2023/10/02 03:15:46;;;;;;;11.95;4.45;;;;;;;22.73;100.00;101665.22;4950498;29;20047;-41
2023/10/02 03:18:23;;;;;;;14.27;5.10;;;;;;;22.73;100.00;101665.22;4936689;29;20433;-45
2023/10/02 03:20:50;;;;;;;13.32;5.22;;;;;;;22.73;100.00;101653.88;4951867;29;20059;-41
2023/10/02 03:23:18;;;;;;;13.30;5.07;;;;;;;22.71;100.00;101651.53;4946256;28;20541;-43
2023/10/02 03:25:47;;;;;;;16.27;5.43;;;;;;;22.71;100.00;101645.09;4945776;29;20058;-42
2023/10/02 03:28:32;;;;;;;14.30;4.90;;;;;;;22.72;100.00;101653.13;4952273;29;20078;-46
2023/10/02 03:31:00;;;;;;;17.05;5.78;;;;;;;22.72;100.00;101646.66;4950898;29;20055;-42
2023/10/02 03:33:31;;;;;;;12.45;4.80;;;;;;;22.71;100.00;101640.19;4952936;29;20055;-45
2023/10/02 03:36:09;;;;;;;13.75;4.97;;;;;;;22.69;100.00;101636.28;4953519;29;20051;-43
2023/10/02 03:38:41;;;;;;;9.95;4.13;;;;;;;22.71;100.00;101639.44;4947763;28;20896;-41
2023/10/02 03:41:09;;;;;;;12.32;5.15;;;;;;;22.71;100.00;101633.75;4943923;28;20051;-42
2023/10/02 03:43:42;;;;;;;13.95;5.78;;;;;;;22.69;100.00;101634.22;4951520;29;20058;-41
2023/10/02 03:46:35;;;;;;;11.73;4.13;;;;;;;22.70;100.00;101632.16;4937171;29;20511;-41
2023/10/02 03:49:04;;;;;;;13.75;5.28;;;;;;;22.69;100.00;101628.56;4934415;29;20052;-40
2023/10/02 03:51:37;;;;;;;14.93;5.40;;;;;;;22.68;100.00;101624.13;4935369;29;20138;-42
2023/10/02 03:54:18;;;;;;;13.47;5.13;;;;;;;22.68;100.00;101629.03;4952529;29;20055;-41
2023/10/02 03:56:50;;;;;;;12.55;4.75;;;;;;;22.64;100.00;101623.53;4938097;29;20043;-40
2023/10/02 03:59:25;;;;;;;11.18;4.30;;;;;;;22.68;100.00;101617.72;4937007;29;20083;-44
2023/10/02 04:02:24;;;;;;;12.80;4.82;;;;;;;22.71;100.00;101622.41;4938197;29;20482;-43
2023/10/02 04:04:46;;;;;;;13.38;4.70;;;;;;;22.69;100.00;101613.59;4952776;29;20426;-43
2023/10/02 04:07:13;;;;;;;13.30;5.18;;;;;;;22.68;100.00;101617.72;4952012;29;20047;-43
2023/10/02 04:09:39;;;;;;;11.38;4.95;;;;;;;22.69;100.00;101603.06;4953014;29;20047;-41
2023/10/02 04:12:06;;;;;;;13.52;5.13;;;;;;;22.70;100.00;101609.50;4947382;28;20055;-45
2023/10/02 04:14:38;;;;;;;11.63;4.55;;;;;;;22.68;100.00;101612.03;4935487;29;20055;-44
2023/10/02 04:17:20;;;;;;;13.35;5.07;;;;;;;22.71;100.00;101613.91;4937508;28;20055;-42
2023/10/02 04:19:49;;;;;;;14.32;4.60;;;;;;;22.69;100.00;101608.72;4933046;29;20458;-42
2023/10/02 04:22:22;;;;;;;14.23;4.40;;;;;;;22.70;100.00;101609.50;4940743;29;20062;-44
2023/10/02 04:24:58;;;;;;;12.60;4.97;;;;;;;22.66;100.00;101604.00;4943559;29;20204;-41
2023/10/02 04:32:49;;;;;;;14.10;5.30;;;;;;;22.65;100.00;101601.66;4937369;29;20048;-45
2023/10/02 04:38:47;;;;;;;11.35;4.40;;;;;;;22.66;100.00;101603.22;4924936;29;20106;-43
2023/10/02 04:41:05;;;;;;;13.10;5.07;;;;;;;22.66;100.00;101598.34;4942972;29;20593;-44
2023/10/02 04:43:34;;;;;;;11.90;4.38;;;;;;;22.65;100.00;101608.13;4945325;29;20070;-45
2023/10/02 04:46:14;;;;;;;12.00;4.72;;;;;;;22.65;100.00;101604.50;4938272;29;20103;-43
2023/10/02 04:48:54;;;;;;;12.95;4.65;;;;;;;22.62;100.00;101603.41;4939120;29;20653;-42
2023/10/02 04:51:22;;;;;;;12.63;4.85;;;;;;;22.65;100.00;101607.31;4932381;29;20070;-43
2023/10/02 04:53:49;;;;;;;13.10;4.43;;;;;;;22.64;100.00;101602.94;4951822;29;20586;-41
2023/10/02 04:58:51;;;;;;;15.20;6.07;;;;;;;22.64;100.00;101605.75;4951671;29;20067;-42
2023/10/02 05:01:25;;;;;;;12.63;4.70;;;;;;;22.62;100.00;101603.41;4948970;29;20059;-42
2023/10/02 05:03:52;;;;;;;13.30;4.85;;;;;;;22.61;100.00;101601.81;4951850;29;20152;-42
2023/10/02 05:09:19;;;;;;;14.27;5.03;;;;;;;22.62;100.00;101611.13;4933712;28;20426;-41
2023/10/02 05:11:52;;;;;;;15.60;5.28;;;;;;;22.60;100.00;101610.78;4942547;29;20050;-45
2023/10/02 05:14:26;;;;;;;13.35;5.07;;;;;;;22.59;100.00;101604.38;4948516;29;20571;-42
2023/10/02 05:20:01;;;;;;;12.20;4.93;;;;;;;22.58;100.00;101607.69;4942045;29;20051;-42
2023/10/02 05:22:31;;;;;;;12.10;4.82;;;;;;;22.59;100.00;101615.69;4945552;29;20513;-41
2023/10/02 05:24:59;;;;;;;11.88;4.57;;;;;;;22.61;100.00;101615.22;4950075;29;20126;-43
2023/10/02 05:27:30;;;;;;;13.25;4.75;;;;;;;22.63;100.00;101612.69;4941333;29;20138;-44
2023/10/02 05:30:05;;;;;;;12.65;5.25;;;;;;;22.62;100.00;101614.75;4936048;28;20051;-43
2023/10/02 05:32:31;;;;;;;14.27;4.63;;;;;;;22.62;100.00;101611.13;4933219;29;20087;-44
2023/10/02 05:35:04;;;;;;;11.80;4.63;;;;;;;22.61;100.00;101616.00;4932070;29;20519;-41
2023/10/02 05:37:32;;;;;;;11.18;4.50;;;;;;;22.59;100.00;101614.91;4933480;28;20122;-42
2023/10/02 05:48:15;;;;;;;13.40;5.20;;;;;;;22.60;100.00;101627.81;4939396;29;20417;-40
2023/10/02 05:50:48;;;;;;;11.75;4.68;;;;;;;22.64;100.00;101631.28;4934162;29;20062;-42
2023/10/02 05:53:15;;;;;;;12.20;4.60;;;;;;;22.71;100.00;101639.44;4933555;28;20532;-45
2023/10/02 05:58:32;;;;;;;15.88;5.38;;;;;;;22.72;100.00;101641.00;4945593;29;20059;-46
2023/10/02 06:01:04;;;;;;;11.32;4.68;;;;;;;22.70;100.00;101638.63;4933115;28;20814;-40
2023/10/02 06:03:35;;;;;;;15.40;4.95;;;;;;;22.69;100.00;101636.28;4943745;29;20102;-42
2023/10/02 06:06:18;;;;;;;12.45;4.57;;;;;;;22.69;100.00;101639.09;4945494;29;20683;-45
2023/10/02 06:08:48;;;;;;;13.10;5.18;;;;;;;22.67;100.00;101644.47;4940634;29;20051;-42
2023/10/02 06:11:31;;;;;;;11.80;4.35;;;;;;;22.70;100.00;101640.66;4939768;29;20051;-45
2023/10/02 06:14:10;;;;;;;13.35;4.85;;;;;;;22.69;100.00;101633.44;4945549;29;20047;-43
2023/10/02 06:16:42;;;;;;;11.48;4.45;;;;;;;22.65;100.00;101642.13;4940926;29;20043;-42
2023/10/02 06:19:14;;;;;;;11.38;4.75;;;;;;;22.66;100.00;101642.91;4950474;29;20131;-41
2023/10/02 06:24:27;;;;;;;11.35;4.65;;;;;;;22.62;100.00;101633.78;4939779;28;20047;-41
2023/10/02 06:26:57;;;;;;;10.30;4.60;;;;;;;22.65;100.00;101635.66;4938951;29;20449;-44
2023/10/02 06:29:28;;;;;;;12.63;4.43;;;;;;;22.66;100.00;101634.41;4940473;29;20051;-41
2023/10/02 06:31:58;;;;;;;12.52;4.95;;;;;;;22.64;100.00;101637.72;4944694;29;20043;-42
2023/10/02 06:34:36;;;;;;;12.10;4.65;;;;;;;22.66;100.00;101634.41;4942792;29;20084;-44
2023/10/02 06:37:07;;;;;;;13.70;4.68;;;;;;;22.68;100.00;101637.56;4946294;29;20070;-41
2023/10/02 06:39:38;;;;;;;12.07;4.55;;;;;;;22.68;100.00;101637.56;4940395;29;20513;-44
2023/10/02 06:42:05;;;;;;;11.82;4.40;;;;;;;22.67;100.00;101639.59;4947365;28;20052;-41
2023/10/02 06:44:38;;;;;;;13.98;4.25;;;;;;;22.65;100.00;101639.28;4951116;28;20615;-44
2023/10/02 06:47:11;;;;;;;14.18;4.60;;;;;;;22.67;100.00;101641.63;4942586;28;20098;-42
2023/10/02 06:49:41;;;;;;;11.60;3.90;;;;;;;22.68;100.00;101640.38;4945159;29;20043;-43
2023/10/02 06:52:15;;;;;;;10.30;3.65;;;;;;;22.70;100.00;101652.81;4938578;29;20430;-45
2023/10/02 06:54:43;;;;;;;11.98;4.40;;;;;;;22.73;100.00;101643.34;4948687;28;20086;-41
2023/10/02 06:57:20;;;;;;;11.02;4.15;;;;;;;22.72;100.00;101646.66;4936138;29;20051;-42
2023/10/02 06:59:51;;;;;;;11.23;3.63;;;;;;;22.72;100.00;101641.78;4945303;29;20074;-42
2023/10/02 07:02:26;;;;;;;13.80;4.57;;;;;;;22.69;100.00;101637.06;4942146;28;20047;-45
2023/10/02 07:04:55;;;;;;;16.65;5.28;;;;;;;22.69;100.00;101639.09;4925880;29;20490;-42
2023/10/02 07:07:32;;;;;;;12.75;3.85;;;;;;;22.75;100.00;101645.69;4944547;29;20685;-42
2023/10/02 07:10:08;;;;;;;11.35;4.57;;;;;;;22.71;100.00;101647.94;4939714;28;20106;-38
2023/10/02 07:12:40;;;;;;;12.60;4.10;;;;;;;22.73;100.00;101634.03;4948305;29;20083;-41
2023/10/02 07:15:20;;;;;;;11.32;4.47;;;;;;;22.72;100.00;101638.16;4944561;29;20055;-42
2023/10/02 07:17:50;;;;;;;9.90;4.22;;;;;;;22.73;100.00;101634.84;4937156;29;20181;-43
2023/10/02 07:20:20;;;;;;;12.82;4.20;;;;;;;22.75;100.00;101640.78;4944232;29;20055;-45
2023/10/02 07:22:47;;;;;;;14.20;4.32;;;;;;;22.72;100.00;101646.66;4941019;29;20083;-44
2023/10/02 07:25:20;;;;;;;13.73;4.22;;;;;;;22.76;100.00;101641.59;4945949;28;20537;-44
2023/10/02 07:27:50;;;;;;;12.05;4.10;;;;;;;22.77;100.00;101649.63;4938833;28;20047;-45
2023/10/02 07:30:25;;;;;;;14.45;4.32;;;;;;;22.80;100.00;101647.88;4934961;29;20059;-41
2023/10/02 07:32:54;;;;;;;16.73;5.60;;;;;;;22.79;100.00;101640.63;4942856;28;20094;-46
2023/10/02 07:35:24;;;;;;;20.05;5.50;;;;;;;22.76;100.00;101642.38;4942805;28;20059;-41
2023/10/02 07:38:00;;;;;;;16.85;5.80;;;;;;;22.78;100.00;101644.75;4909061;29;20142;-41
2023/10/02 07:40:49;;;;;;;17.48;5.85;;;;;;;22.76;100.00;101639.56;4941040;28;20549;-41
2023/10/02 07:43:18;;;;;;;17.92;6.00;;;;;;;22.75;100.00;101631.53;4939471;29;20056;-44
2023/10/02 07:46:01;;;;;;;18.27;6.47;;;;;;;22.67;100.00;101633.13;4942160;29;20134;-41
2023/10/02 07:48:35;;;;;;;18.30;7.90;;;;;;;22.48;100.00;101632.41;4952592;29;20079;-41
2023/10/02 07:51:06;;;;;;;19.88;7.35;;;;;;;22.41;100.00;101634.81;4947111;29;20440;-44
2023/10/02 07:53:43;;;;;;;20.67;7.80;;;;;;;22.10;100.00;101633.00;4945848;28;20066;-43
2023/10/02 07:56:12;;;;;;;20.27;7.45;;;;;;;22.16;100.00;101633.13;4939358;28;20051;-41
2023/10/02 07:58:40;;;;;;;22.48;8.10;;;;;;;22.31;100.00;101633.28;4946195;29;20520;-41
2023/10/02 08:01:13;;;;;;;22.55;8.13;;;;;;;22.22;100.00;101625.56;4951365;29;20673;-43
2023/10/02 08:03:44;;;;;;;23.02;8.50;;;;;;;22.15;100.00;101631.56;4948226;28;20659;-41
2023/10/02 08:06:21;;;;;;;20.40;8.63;;;;;;;22.36;100.00;101629.78;4945288;29;20055;-41
2023/10/02 08:09:47;;;;;;;19.02;8.15;;;;;;;22.35;100.00;101625.41;4945825;29;20074;-41
2023/10/02 08:11:49;;;;;;;26.45;8.13;;;;;;;22.50;100.00;101635.56;4939696;29;20828;-42
2023/10/02 08:19:56;;;;;;;21.92;7.35;;;;;;;22.48;100.00;101632.41;4949433;29;20051;-40
2023/10/02 08:22:24;;;;;;;30.30;9.00;;;;;;;22.49;100.00;101624.72;4939763;29;20090;-44
2023/10/02 08:24:52;;;;;;;21.15;7.85;;;;;;;22.56;100.00;101627.19;4948805;28;20055;-45
2023/10/02 08:27:19;;;;;;;21.58;7.45;;;;;;;22.52;100.00;101624.56;4944669;29;20625;-40
2023/10/02 08:29:45;;;;;;;21.25;8.18;;;;;;;22.59;100.00;101626.25;4939901;29;20052;-46
2023/10/02 08:32:12;;;;;;;24.67;7.70;;;;;;;22.58;100.00;101628.28;4944758;29;20114;-40
2023/10/02 08:34:39;;;;;;;23.63;7.40;;;;;;;22.61;100.00;101626.56;4949899;29;20534;-42
2023/10/02 08:37:07;;;;;;;20.60;7.60;;;;;;;22.61;100.00;101627.31;4947741;29;20054;-41
2023/10/02 08:39:38;;;;;;;19.10;6.57;;;;;;;22.59;100.00;101627.03;4945984;29;20050;-42
2023/10/02 08:42:13;;;;;;;18.95;7.20;;;;;;;22.61;100.00;101623.72;4950518;29;20571;-43
2023/10/02 08:44:42;;;;;;;23.70;8.30;;;;;;;22.62;100.00;101631.75;4938476;29;20075;-41
2023/10/02 08:47:12;;;;;;;20.20;7.53;;;;;;;22.62;100.00;101628.13;4939888;29;20051;-40
2023/10/02 08:49:40;;;;;;;20.05;7.07;;;;;;;22.59;100.00;101626.25;4945889;28;20055;-44
2023/10/02 08:52:13;;;;;;;20.00;7.18;;;;;;;22.64;100.00;101631.28;4938514;28;20159;-43
2023/10/02 08:54:44;;;;;;;22.23;8.35;;;;;;;22.53;100.00;101622.47;4942016;29;20078;-40
2023/10/02 08:57:12;;;;;;;25.10;9.25;;;;;;;22.55;100.00;101614.31;4946017;29;20071;-43
2023/10/02 08:59:40;;;;;;;19.65;7.32;;;;;;;22.58;100.00;101613.34;4943158;29;20095;-41
2023/10/02 09:02:15;;;;;;;23.20;8.90;;;;;;;22.57;100.00;101623.88;4944735;29;20618;-42
2023/10/02 09:04:51;;;;;;;24.40;8.82;;;;;;;22.59;100.00;101612.06;4938629;29;20134;-42
2023/10/02 09:10:25;;;;;;;23.92;9.02;;;;;;;22.62;100.00;101611.91;4943040;29;20119;-43
2023/10/02 09:13:24;;;;;;;22.83;7.97;;;;;;;22.60;100.00;101605.13;4942870;28;20074;-41
2023/10/02 09:15:53;;;;;;;21.98;8.60;;;;;;;22.60;100.00;101607.97;4932549;29;20048;-41
2023/10/02 09:18:34;;;;;;;21.45;8.13;;;;;;;22.61;100.00;101606.72;4938735;29;20055;-46
2023/10/02 09:21:15;;;;;;;23.45;9.68;;;;;;;22.66;100.00;101601.19;4932177;29;20058;-44
2023/10/02 09:23:52;;;;;;;21.33;7.90;;;;;;;22.63;100.00;101613.47;4932312;29;20553;-41
2023/10/02 09:26:23;;;;;;;22.25;8.05;;;;;;;22.72;100.00;101616.28;4935675;29;20130;-41
2023/10/02 09:29:03;;;;;;;24.70;8.30;;;;;;;22.73;100.00;101614.19;4949563;28;20051;-44
2023/10/02 09:31:34;;;;;;;20.70;7.85;;;;;;;22.77;100.00;101607.09;4941220;28;20043;-42
2023/10/02 09:34:16;;;;;;;20.10;7.30;;;;;;;22.74;100.00;101601.63;4945371;29;20059;-45
2023/10/02 09:37:11;;;;;;;20.45;7.55;;;;;;;22.74;100.00;101608.06;4932069;29;20047;-41
2023/10/02 09:39:58;;;;;;;27.05;7.93;;;;;;;22.76;100.00;101604.75;4945242;29;20058;-41
2023/10/02 09:42:27;;;;;;;21.48;7.43;;;;;;;22.77;100.00;101607.09;4941391;28;20066;-41
2023/10/02 09:44:55;;;;;;;21.17;7.90;;;;;;;22.77;100.00;101598.59;4951209;29;20050;-43
2023/10/02 09:47:25;;;;;;;22.55;8.32;;;;;;;22.77;100.00;101598.59;4949842;29;20057;-47
2023/10/02 09:50:13;;;;;;;20.42;7.40;;;;;;;22.76;100.00;101590.56;4945442;28;20047;-42
2023/10/02 09:52:58;;;;;;;20.98;7.03;;;;;;;22.76;100.00;101597.03;4941182;28;20047;-46
2023/10/02 09:55:34;;;;;;;;;;;;;;;22.75;100.00;101583.34;4937274;29;20523;-40
2023/10/02 09:58:06;;;;;;;22.35;7.63;;;;;;;22.78;100.00;101585.22;4943165;29;19926;-41
2023/10/02 10:00:36;;;;;;;20.25;6.90;;;;;;;22.81;100.00;101587.09;4944887;29;20114;-43
2023/10/02 10:03:22;;;;;;;22.70;7.95;;;;;;;22.83;100.00;101581.69;4949154;29;20486;-42
2023/10/02 10:06:08;;;;;;;19.63;7.05;;;;;;;22.84;100.00;101574.75;4941976;29;20054;-40
2023/10/02 10:12:21;;;;;;;19.83;7.47;;;;;;;22.82;100.00;101577.31;4944441;29;20566;-41
2023/10/02 10:14:54;;;;;;;20.95;7.32;;;;;;;22.85;100.00;101567.84;4945294;29;20755;-45
2023/10/02 10:17:21;;;;;;;19.50;6.82;;;;;;;22.85;100.00;101565.78;4942793;29;20114;-47
2023/10/02 10:19:48;;;;;;;20.45;7.20;;;;;;;22.84;100.00;101563.41;4937977;29;20051;-41
2023/10/02 10:22:39;;;;;;;21.65;7.20;;;;;;;22.85;100.00;101570.69;4938815;28;20074;-40
2023/10/02 10:30:50;;;;;;;21.45;7.63;;;;;;;22.84;100.00;101564.22;4918212;28;20139;-41
2023/10/02 10:33:17;;;;;;;20.85;7.63;;;;;;;22.86;100.00;101564.53;4935202;29;20063;-43
2023/10/02 10:35:57;;;;;;;18.90;7.03;;;;;;;22.88;100.00;101561.22;4935303;28;20126;-41
2023/10/02 10:38:44;;;;;;;19.83;6.93;;;;;;;22.85;100.00;101565.00;4940013;29;20130;-40
2023/10/02 10:41:33;;;;;;;19.55;7.15;;;;;;;22.86;100.00;101555.22;4950173;29;20094;-42
2023/10/02 10:44:06;;;;;;;26.50;7.10;;;;;;;22.86;100.00;101552.38;4938475;28;20088;-41
2023/10/02 10:46:37;;;;;;;21.15;7.45;;;;;;;22.85;100.00;101553.66;4939624;28;20135;-45
2023/10/02 10:49:07;;;;;;;21.75;7.03;;;;;;;22.82;100.00;101546.13;4938488;28;20094;-42
2023/10/02 10:51:36;;;;;;;19.80;6.85;;;;;;;22.83;100.00;101544.84;4942701;28;20055;-43
2023/10/02 10:54:14;;;;;;;18.70;7.70;;;;;;;22.83;100.00;101544.84;4937442;28;20557;-41
2023/10/02 10:57:22;;;;;;;21.10;7.53;;;;;;;22.82;100.00;101552.59;4939148;28;20138;-41
2023/10/02 11:00:23;;;;;;;22.58;7.65;;;;;;;22.80;100.00;101552.28;4932754;29;20191;-40
2023/10/02 11:03:07;;;;;;;22.70;7.97;;;;;;;22.83;100.00;101544.84;4936519;28;20422;-40
2023/10/02 11:05:36;;;;;;;21.47;7.23;;;;;;;22.84;100.00;101543.56;4938453;29;20482;-40
2023/10/02 11:08:25;;;;;;;20.98;7.25;;;;;;;22.85;100.00;101536.66;4938700;29;20398;-44
2023/10/02 11:11:06;;;;;;;20.45;7.53;;;;;;;22.87;100.00;101539.78;4944958;28;20506;-40
2023/10/02 11:13:54;;;;;;;19.23;6.68;;;;;;;22.87;100.00;101536.94;4938566;29;20059;-41
2023/10/02 11:16:38;;;;;;;22.48;7.82;;;;;;;22.90;100.00;101541.66;4938295;28;20735;-42
2023/10/02 11:19:21;;;;;;;21.25;7.10;;;;;;;22.90;100.00;101535.97;4931391;29;20075;-39
2023/10/02 11:22:18;;;;;;;21.42;7.47;;;;;;;22.90;100.00;101548.13;4933069;29;20047;-40
2023/10/02 11:24:45;;;;;;;18.85;7.03;;;;;;;22.91;100.00;101543.22;4939133;29;20058;-43
2023/10/02 11:27:15;;;;;;;16.50;6.40;;;;;;;22.88;100.00;101538.53;4942383;28;20478;-40
2023/10/02 11:29:45;;;;;;;16.15;6.35;;;;;;;22.94;100.00;101548.72;4938460;29;20569;-39
2023/10/02 11:32:19;;;;;;;19.60;7.05;;;;;;;22.94;100.00;101539.41;4947731;29;20058;-42
2023/10/02 11:34:59;;;;;;;18.98;6.80;;;;;;;22.89;100.00;101534.41;4943242;28;20138;-44
2023/10/02 11:37:26;;;;;;;27.33;8.85;;;;;;;23.04;100.00;101538.91;4943224;28;20061;-40
2023/10/02 11:39:55;;;;;;;18.50;7.22;;;;;;;22.98;100.00;101543.66;4943898;29;20047;-41
2023/10/02 11:42:23;;;;;;;21.50;8.18;;;;;;;23.04;100.00;101540.94;4933940;29;20055;-42
2023/10/02 11:44:49;;;;;;;22.85;8.13;;;;;;;22.99;100.00;101536.75;4928527;29;20058;-40
2023/10/02 11:47:16;;;;;;;20.17;7.50;;;;;;;23.07;100.00;101540.75;4944983;28;20106;-42
2023/10/02 11:49:44;;;;;;;20.58;8.23;;;;;;;23.11;100.00;101540.56;4938460;28;20106;-42
2023/10/02 11:52:11;;;;;;;24.95;8.30;;;;;;;23.10;100.00;101539.81;4945394;28;20054;-41
2023/10/02 11:54:39;;;;;;;23.88;8.38;;;;;;;23.09;100.00;101546.72;4947209;28;20127;-42
2023/10/02 11:57:10;;;;;;;25.60;9.63;;;;;;;23.12;100.00;101536.47;4951349;29;20061;-40
2023/10/02 11:59:41;;;;;;;22.40;8.48;;;;;;;23.08;100.00;101533.06;4948762;28;20055;-41
2023/10/02 12:02:11;;;;;;;24.05;8.25;;;;;;;23.12;100.00;101533.66;4941425;28;20055;-41
2023/10/02 12:04:38;;;;;;;22.05;8.40;;;;;;;23.14;100.00;101526.22;4940567;29;20059;-42
2023/10/02 12:07:06;;;;;;;20.25;7.82;;;;;;;23.19;100.00;101519.09;4936556;28;20122;-41
2023/10/02 12:09:33;;;;;;;22.92;8.70;;;;;;;23.04;100.00;101527.56;4942069;29;20126;-39
2023/10/02 12:12:00;;;;;;;23.35;8.43;;;;;;;23.04;100.00;101521.88;4944302;28;20508;-42
2023/10/02 12:14:29;;;;;;;24.17;9.50;;;;;;;23.01;100.00;101522.06;4941944;28;20060;-40
2023/10/02 12:16:59;;;;;;;23.10;9.52;;;;;;;23.09;100.00;101511.91;4944605;29;20062;-40
2023/10/02 12:19:28;;;;;;;27.38;9.48;;;;;;;23.10;100.00;101507.81;4949054;28;20595;-43
2023/10/02 12:21:55;;;;;;;22.98;9.02;;;;;;;23.10;100.00;101511.44;4938902;29;20052;-40
2023/10/02 12:24:36;;;;;;;23.20;8.63;;;;;;;23.13;100.00;101501.16;4932837;29;20510;-41
2023/10/02 12:27:15;;;;;;;23.67;9.57;;;;;;;23.15;100.00;101492.97;4947508;29;20090;-43
2023/10/02 12:29:42;;;;;;;22.75;8.32;;;;;;;23.18;100.00;101491.97;4940652;28;20135;-42